SFO weather

San Francisco International Airport
San Francisco, California, United States

Public forecast

Using degrees Fahrenheit for public forecast. Weather courtesy of forecast.io.

Current aviation weather report (METAR) for San Francisco International Airport

Retrieved 2020/04/01 10:56 UTC (36 minutes ago):

KSFO 011056Z VRB05KT 10SM FEW008 10/06 A3002 RMK AO2 SLP164 T01000056

Aviation forecast (TAF) for San Francisco International Airport

Retrieved 2020/04/01 06:33 UTC (5 hours ago):

TAF KSFO 010530Z 0106/0212 28012KT P6SM SCT010 FM011200 28016G23KT P6SM FEW010 SCT015 FM012100 28018G27KT P6SM SCT025 BKN050 FM020500 27015KT P6SM SKC FM020800 27007KT P6SM SKC